Time;durP1;ratioP1;P1;durP2;ratioP2;P2;SDS_P1;SDS_P2;PMS_P1;PMS_P2;Temp;Humidity;BMP_temperature;BMP_pressure;BME280_temperature;BME280_humidity;BME280_pressure;Samples;Min_cycle;Max_cycle;Signal;HPM_P1;HPM_P2
2022/10/27 00:01:08;;;;;;;1.90;1.30;;;17.20;70.80;;;;;;5069888;28;20063;-69
2022/10/27 00:03:35;;;;;;;3.13;1.30;;;17.20;70.80;;;;;;5086590;28;20135;-71
2022/10/27 00:06:05;;;;;;;1.70;1.38;;;17.20;70.80;;;;;;5090872;28;20052;-71
2022/10/27 00:08:32;;;;;;;2.35;1.55;;;17.20;70.80;;;;;;5074066;28;20055;-71
2022/10/27 00:10:59;;;;;;;1.98;1.30;;;17.20;70.80;;;;;;5091935;28;20055;-71
2022/10/27 00:13:26;;;;;;;2.60;1.50;;;17.20;70.80;;;;;;5091026;28;20047;-71
2022/10/27 00:15:57;;;;;;;1.70;1.30;;;17.20;70.80;;;;;;5092312;28;20469;-70
2022/10/27 00:18:23;;;;;;;2.38;1.40;;;17.20;70.80;;;;;;5091881;28;20048;-70
2022/10/27 00:21:00;;;;;;;1.40;1.30;;;17.20;70.80;;;;;;5071029;28;20045;-70
2022/10/27 00:23:28;;;;;;;1.48;1.30;;;17.20;70.80;;;;;;5070512;28;20052;-70
2022/10/27 00:25:55;;;;;;;2.00;1.30;;;17.10;70.80;;;;;;5071781;28;20505;-70
2022/10/27 00:28:22;;;;;;;1.60;1.30;;;17.10;70.80;;;;;;5070478;28;20143;-70
2022/10/27 00:30:48;;;;;;;1.95;1.48;;;17.10;70.80;;;;;;5070086;28;20146;-70
2022/10/27 00:33:15;;;;;;;2.80;1.30;;;17.10;70.80;;;;;;5071331;28;20123;-70
2022/10/27 00:35:42;;;;;;;1.45;1.20;;;17.10;70.80;;;;;;5070677;28;20500;-70
2022/10/27 00:38:08;;;;;;;2.58;1.58;;;17.10;70.70;;;;;;5070287;28;20166;-70
2022/10/27 00:40:39;;;;;;;2.40;1.45;;;17.10;70.80;;;;;;5069860;28;20052;-70
2022/10/27 00:43:27;;;;;;;2.33;1.30;;;17.10;70.80;;;;;;5071555;28;20420;-70
2022/10/27 00:45:54;;;;;;;3.28;1.40;;;17.10;70.70;;;;;;5070464;28;20059;-70
2022/10/27 00:48:21;;;;;;;1.75;1.42;;;17.10;70.80;;;;;;5070849;28;20508;-70
2022/10/27 00:50:47;;;;;;;1.58;1.25;;;17.10;70.80;;;;;;5070051;28;20049;-70
2022/10/27 00:53:14;;;;;;;2.08;1.40;;;17.10;70.80;;;;;;5070208;28;20507;-70
2022/10/27 00:55:42;;;;;;;1.80;1.30;;;17.00;70.80;;;;;;5070459;28;20059;-70
2022/10/27 00:58:10;;;;;;;1.70;1.25;;;17.00;70.80;;;;;;5070224;28;20063;-70
2022/10/27 01:00:38;;;;;;;1.70;1.30;;;17.10;70.80;;;;;;5069866;28;20398;-69
2022/10/27 01:03:05;;;;;;;2.00;1.40;;;17.10;70.80;;;;;;5069795;28;20052;-70
2022/10/27 01:05:31;;;;;;;1.70;1.50;;;17.00;70.80;;;;;;5069948;28;20056;-70
2022/10/27 01:07:59;;;;;;;1.45;1.20;;;17.10;70.80;;;;;;5070004;28;20049;-70
2022/10/27 01:10:26;;;;;;;1.73;1.20;;;17.10;70.80;;;;;;5074152;28;20412;-70
2022/10/27 01:12:54;;;;;;;2.00;1.30;;;17.00;70.70;;;;;;5073427;28;20056;-69
2022/10/27 01:15:21;;;;;;;2.22;1.40;;;17.00;70.70;;;;;;5073668;28;20070;-70
2022/10/27 01:17:51;;;;;;;1.60;1.40;;;17.00;70.70;;;;;;5073057;28;20127;-70
2022/10/27 01:20:34;;;;;;;1.50;1.20;;;17.00;70.70;;;;;;5073274;28;20050;-70
2022/10/27 01:23:02;;;;;;;1.67;1.20;;;17.00;70.70;;;;;;5073497;28;20059;-70
2022/10/27 01:25:49;;;;;;;1.63;1.20;;;17.00;70.80;;;;;;5074472;28;20517;-70
2022/10/27 01:28:44;;;;;;;2.28;1.40;;;17.00;70.70;;;;;;5073227;28;20052;-70
2022/10/27 01:31:13;;;;;;;3.15;1.50;;;17.00;70.70;;;;;;5072733;28;20069;-70
2022/10/27 01:33:43;;;;;;;2.33;1.40;;;17.00;70.80;;;;;;5072830;28;20059;-70
2022/10/27 01:36:13;;;;;;;2.92;1.50;;;17.00;70.70;;;;;;5073347;28;20062;-70
2022/10/27 01:38:41;;;;;;;1.60;1.40;;;17.00;70.70;;;;;;5073350;28;20056;-70
2022/10/27 01:41:09;;;;;;;1.67;1.30;;;17.00;70.70;;;;;;5073933;28;20044;-70
2022/10/27 01:43:36;;;;;;;2.05;1.27;;;17.00;70.70;;;;;;5072610;28;20055;-70
2022/10/27 01:46:03;;;;;;;1.63;1.40;;;17.00;70.70;;;;;;5074118;28;20055;-70
2022/10/27 01:48:32;;;;;;;1.73;1.40;;;17.00;70.70;;;;;;5072818;28;20056;-70
2022/10/27 01:50:59;;;;;;;2.40;1.30;;;17.00;70.70;;;;;;5072911;28;20052;-70
2022/10/27 01:53:25;;;;;;;2.97;1.42;;;17.00;70.70;;;;;;5073974;28;20429;-70
2022/10/27 01:56:06;;;;;;;1.77;1.38;;;17.00;70.70;;;;;;5072469;28;20060;-70
2022/10/27 01:59:06;;;;;;;1.52;1.30;;;17.00;70.70;;;;;;5073982;28;20409;-70
2022/10/27 02:01:39;;;;;;;1.70;1.27;;;17.00;70.70;;;;;;5073196;28;20072;-70
2022/10/27 02:04:11;;;;;;;2.47;1.38;;;17.00;70.80;;;;;;5072568;28;20063;-70
2022/10/27 02:06:41;;;;;;;2.33;1.40;;;17.00;70.80;;;;;;5072553;28;20068;-70
2022/10/27 02:09:10;;;;;;;1.85;1.40;;;17.00;70.80;;;;;;5073810;28;20061;-70
2022/10/27 02:11:38;;;;;;;1.75;1.25;;;16.90;70.70;;;;;;5072320;28;20079;-70
2022/10/27 02:14:05;;;;;;;2.38;1.27;;;17.00;70.80;;;;;;5073840;28;20049;-70
2022/10/27 02:16:33;;;;;;;2.13;1.40;;;17.00;70.80;;;;;;5073445;28;20045;-70
2022/10/27 02:19:01;;;;;;;1.60;1.30;;;17.00;70.80;;;;;;5073579;28;20056;-70
2022/10/27 02:21:29;;;;;;;2.38;1.30;;;17.00;70.80;;;;;;5072032;28;20422;-70
2022/10/27 02:23:55;;;;;;;1.98;1.48;;;17.00;70.80;;;;;;5072330;28;20143;-70
2022/10/27 02:26:24;;;;;;;1.92;1.30;;;16.90;70.70;;;;;;5072343;28;20052;-70
2022/10/27 02:28:53;;;;;;;2.28;1.20;;;16.90;70.70;;;;;;5072269;28;20436;-70
2022/10/27 02:31:20;;;;;;;2.65;1.30;;;17.00;70.80;;;;;;5080938;28;20049;-70
2022/10/27 02:33:47;;;;;;;1.55;1.20;;;16.90;70.70;;;;;;5073228;28;20051;-69
2022/10/27 02:36:13;;;;;;;2.17;1.50;;;16.90;70.70;;;;;;5072849;28;20412;-70
2022/10/27 02:38:41;;;;;;;1.50;1.25;;;17.00;70.80;;;;;;5073273;28;20049;-70
2022/10/27 02:41:08;;;;;;;1.75;1.30;;;16.90;70.70;;;;;;5071799;28;20059;-70
2022/10/27 02:43:35;;;;;;;2.00;1.40;;;16.90;70.80;;;;;;5073228;28;20564;-70
2022/10/27 02:46:01;;;;;;;2.38;1.30;;;16.90;70.80;;;;;;5071444;28;20048;-70
2022/10/27 02:48:28;;;;;;;1.60;1.35;;;16.90;70.80;;;;;;5071864;28;20056;-69
2022/10/27 02:50:55;;;;;;;2.17;1.35;;;16.90;70.80;;;;;;5071485;28;20059;-70
2022/10/27 02:53:21;;;;;;;1.45;1.20;;;16.90;70.80;;;;;;5072769;28;20421;-70
2022/10/27 02:55:49;;;;;;;2.22;1.73;;;16.90;70.80;;;;;;5071497;28;20057;-70
2022/10/27 02:58:16;;;;;;;2.50;1.20;;;16.90;70.70;;;;;;5071852;28;20059;-70
2022/10/27 03:00:43;;;;;;;1.30;1.20;;;16.90;70.70;;;;;;5085147;28;20409;-70
2022/10/27 03:03:10;;;;;;;1.60;1.30;;;16.90;70.80;;;;;;5092629;28;20048;-70
2022/10/27 03:05:36;;;;;;;1.65;1.30;;;16.90;70.80;;;;;;5092102;28;20056;-70
2022/10/27 03:08:03;;;;;;;2.47;1.50;;;16.90;70.80;;;;;;5092681;28;20056;-70
2022/10/27 03:10:30;;;;;;;2.63;1.27;;;16.90;70.80;;;;;;5091281;28;20052;-70
2022/10/27 03:12:58;;;;;;;1.42;1.30;;;16.90;70.80;;;;;;5092707;28;20054;-70
2022/10/27 03:15:24;;;;;;;1.40;1.30;;;16.90;70.80;;;;;;5079046;28;20055;-70
2022/10/27 03:17:51;;;;;;;1.55;1.35;;;16.90;70.80;;;;;;5072212;28;20051;-70
2022/10/27 03:20:18;;;;;;;1.33;1.20;;;16.90;70.80;;;;;;5070952;28;20444;-71
2022/10/27 03:22:44;;;;;;;2.78;1.50;;;16.90;70.80;;;;;;5071159;28;20054;-70
2022/10/27 03:25:13;;;;;;;2.00;1.40;;;16.90;70.80;;;;;;5071456;28;20053;-71
2022/10/27 03:27:40;;;;;;;2.92;1.33;;;16.90;70.80;;;;;;5072719;28;20409;-71
2022/10/27 03:30:09;;;;;;;1.67;1.30;;;16.90;70.80;;;;;;5087601;28;20066;-70
2022/10/27 03:32:36;;;;;;;1.40;1.20;;;16.90;70.80;;;;;;5091211;28;20054;-71
2022/10/27 03:35:03;;;;;;;1.98;1.30;;;16.90;70.80;;;;;;5091561;28;20059;-70
2022/10/27 03:37:30;;;;;;;2.03;1.40;;;16.80;70.70;;;;;;5091610;28;20430;-70
2022/10/27 03:39:56;;;;;;;1.50;1.30;;;16.90;70.80;;;;;;5092282;28;20048;-71
2022/10/27 03:42:23;;;;;;;2.17;1.33;;;16.90;70.80;;;;;;5092333;28;20058;-70
2022/10/27 03:44:50;;;;;;;2.30;1.30;;;16.90;70.80;;;;;;5077043;28;20052;-70
2022/10/27 03:47:18;;;;;;;1.77;1.40;;;16.90;70.80;;;;;;5070775;28;20056;-70
2022/10/27 03:49:45;;;;;;;1.77;1.30;;;16.90;70.80;;;;;;5070983;28;20645;-70
2022/10/27 03:52:12;;;;;;;2.58;1.45;;;16.90;70.80;;;;;;5071044;28;20048;-70
2022/10/27 03:54:38;;;;;;;1.95;1.20;;;16.80;70.80;;;;;;5070591;28;20067;-70
2022/10/27 03:57:05;;;;;;;1.88;1.27;;;16.90;70.80;;;;;;5071856;28;20076;-71
2022/10/27 03:59:33;;;;;;;1.85;1.48;;;16.90;70.90;;;;;;5070334;28;20052;-70
2022/10/27 04:02:00;;;;;;;2.47;1.50;;;16.90;70.80;;;;;;5070325;28;20048;-70
2022/10/27 04:04:28;;;;;;;4.03;1.30;;;16.90;70.80;;;;;;5070544;28;20062;-70
2022/10/27 04:06:55;;;;;;;2.75;1.30;;;16.90;70.80;;;;;;5054307;28;20052;-70
2022/10/27 04:09:21;;;;;;;1.42;1.20;;;16.80;70.80;;;;;;5090452;28;20047;-71
2022/10/27 04:11:48;;;;;;;2.58;1.60;;;16.90;70.80;;;;;;5090481;28;20430;-70
2022/10/27 04:14:15;;;;;;;2.17;1.40;;;16.90;70.80;;;;;;5091662;28;20048;-70
2022/10/27 04:16:42;;;;;;;2.38;1.40;;;16.80;70.80;;;;;;5077565;28;20045;-70
2022/10/27 04:19:10;;;;;;;1.63;1.30;;;16.80;70.80;;;;;;5070177;28;20413;-70
2022/10/27 04:21:38;;;;;;;1.40;1.30;;;16.80;70.80;;;;;;5070071;28;20052;-70
2022/10/27 04:24:05;;;;;;;1.40;1.20;;;16.80;70.80;;;;;;5073934;28;20052;-70
2022/10/27 04:26:32;;;;;;;1.92;1.38;;;16.80;70.80;;;;;;5090506;28;20052;-71
2022/10/27 04:28:59;;;;;;;2.03;1.42;;;16.80;70.80;;;;;;5090522;28;20488;-70
2022/10/27 04:31:25;;;;;;;1.65;1.40;;;16.80;70.80;;;;;;5090372;28;20077;-70
2022/10/27 04:33:52;;;;;;;1.33;1.20;;;16.80;70.80;;;;;;5090461;28;20052;-71
2022/10/27 04:36:19;;;;;;;2.13;1.40;;;16.80;70.80;;;;;;5090538;28;20059;-70
2022/10/27 04:38:49;;;;;;;2.25;1.40;;;16.80;70.80;;;;;;5089692;28;21819;-70
2022/10/27 04:41:16;;;;;;;1.92;1.50;;;16.80;70.80;;;;;;5090135;28;20048;-70
2022/10/27 04:43:43;;;;;;;2.13;1.42;;;16.80;70.80;;;;;;5091776;28;20485;-70
2022/10/27 04:46:09;;;;;;;1.50;1.30;;;16.80;70.80;;;;;;5095645;28;20070;-70
2022/10/27 04:48:36;;;;;;;2.28;1.60;;;16.80;70.90;;;;;;5094031;28;20059;-70
2022/10/27 04:51:03;;;;;;;1.60;1.23;;;16.80;70.90;;;;;;5095222;28;20109;-70
2022/10/27 04:53:30;;;;;;;1.85;1.40;;;16.80;70.90;;;;;;5089141;28;20044;-70
2022/10/27 04:55:58;;;;;;;2.13;1.38;;;16.80;70.90;;;;;;5073854;28;20481;-70
2022/10/27 04:58:24;;;;;;;2.50;1.40;;;16.80;70.90;;;;;;5073595;28;20060;-70
2022/10/27 05:00:51;;;;;;;1.58;1.30;;;16.80;70.90;;;;;;5073722;28;20056;-70
2022/10/27 05:03:18;;;;;;;1.88;1.38;;;16.80;70.90;;;;;;5073527;28;20052;-70
2022/10/27 05:05:45;;;;;;;1.40;1.30;;;16.80;70.90;;;;;;5074771;28;20139;-70
2022/10/27 05:08:12;;;;;;;1.60;1.20;;;16.80;70.80;;;;;;5073874;28;20059;-70
2022/10/27 05:10:38;;;;;;;3.20;1.75;;;16.80;70.80;;;;;;5075609;28;20048;-70
2022/10/27 05:13:06;;;;;;;1.60;1.20;;;16.80;70.90;;;;;;5074585;28;20048;-70
2022/10/27 05:15:33;;;;;;;2.03;1.30;;;16.70;70.80;;;;;;5073708;28;20060;-70
2022/10/27 05:18:00;;;;;;;2.10;1.38;;;16.80;70.80;;;;;;5073582;28;20490;-70
2022/10/27 05:20:26;;;;;;;1.55;1.27;;;16.70;70.80;;;;;;5074443;28;20048;-70
2022/10/27 05:22:53;;;;;;;2.20;1.40;;;16.70;70.80;;;;;;5073167;28;20054;-70
2022/10/27 05:25:20;;;;;;;2.17;1.60;;;16.70;70.80;;;;;;5074425;28;20056;-70
2022/10/27 05:27:46;;;;;;;2.90;1.40;;;16.70;70.80;;;;;;5078250;28;20382;-70
2022/10/27 05:30:14;;;;;;;2.28;1.50;;;16.70;70.80;;;;;;5072936;28;20056;-70
2022/10/27 05:32:41;;;;;;;1.60;1.30;;;16.70;70.80;;;;;;5074312;28;20113;-70
2022/10/27 05:35:08;;;;;;;1.95;1.40;;;16.70;70.80;;;;;;5073326;28;20048;-70
2022/10/27 05:37:35;;;;;;;1.90;1.30;;;16.70;70.80;;;;;;5073026;28;20131;-70
2022/10/27 05:40:03;;;;;;;2.70;1.50;;;16.70;70.80;;;;;;5073999;28;20400;-70
2022/10/27 05:42:30;;;;;;;1.77;1.55;;;16.70;70.80;;;;;;5072948;28;20067;-70
2022/10/27 05:44:56;;;;;;;2.10;1.40;;;16.70;70.80;;;;;;5075270;28;20044;-70
2022/10/27 05:47:25;;;;;;;2.65;1.58;;;16.70;70.80;;;;;;5074070;28;20049;-70
2022/10/27 05:49:51;;;;;;;2.63;1.83;;;16.70;70.80;;;;;;5056603;28;20060;-69
2022/10/27 05:52:18;;;;;;;1.50;1.30;;;16.70;70.80;;;;;;5088732;28;20096;-70
2022/10/27 05:54:45;;;;;;;1.75;1.40;;;16.70;70.80;;;;;;5092794;28;20052;-70
2022/10/27 05:57:11;;;;;;;2.15;1.42;;;16.70;70.80;;;;;;5092080;28;20056;-70
2022/10/27 05:59:38;;;;;;;2.00;1.45;;;16.70;70.70;;;;;;5093139;28;20051;-70
2022/10/27 06:02:05;;;;;;;1.90;1.30;;;16.70;70.80;;;;;;5091134;28;20054;-70
2022/10/27 06:04:33;;;;;;;2.63;1.60;;;16.70;70.70;;;;;;5093961;28;20052;-70
2022/10/27 06:06:59;;;;;;;2.72;1.50;;;16.70;70.70;;;;;;5093099;28;20533;-70
2022/10/27 06:09:26;;;;;;;2.85;1.40;;;16.70;70.70;;;;;;5092982;28;20055;-70
2022/10/27 06:11:53;;;;;;;2.78;1.42;;;16.70;70.70;;;;;;5094140;28;20044;-69
2022/10/27 06:14:20;;;;;;;2.20;1.60;;;16.70;70.70;;;;;;5094057;28;20048;-70
2022/10/27 06:16:46;;;;;;;2.45;1.60;;;16.70;70.70;;;;;;5094138;28;20044;-70
2022/10/27 06:19:13;;;;;;;2.53;1.40;;;16.70;70.70;;;;;;5072786;28;20127;-70
2022/10/27 06:21:41;;;;;;;1.95;1.42;;;16.70;70.70;;;;;;5073736;28;20052;-70
2022/10/27 06:24:08;;;;;;;2.35;1.52;;;16.70;70.70;;;;;;5072598;28;20496;-70
2022/10/27 06:26:35;;;;;;;1.83;1.50;;;16.70;70.70;;;;;;5072373;28;20056;-70
2022/10/27 06:29:01;;;;;;;2.67;1.70;;;16.60;70.70;;;;;;5072022;28;20060;-69
2022/10/27 06:31:28;;;;;;;2.13;1.50;;;16.60;70.70;;;;;;5071935;28;20048;-70
2022/10/27 06:33:55;;;;;;;3.05;1.60;;;16.70;70.70;;;;;;5071674;28;20481;-70
2022/10/27 06:36:21;;;;;;;2.63;1.60;;;16.60;70.70;;;;;;5089065;28;20060;-70
2022/10/27 06:38:49;;;;;;;2.03;1.50;;;16.60;70.70;;;;;;5072109;28;20063;-70
2022/10/27 06:41:16;;;;;;;2.35;1.60;;;16.60;70.70;;;;;;5071238;28;20048;-71
2022/10/27 06:43:43;;;;;;;1.65;1.40;;;16.60;70.70;;;;;;5071842;28;20386;-70
2022/10/27 06:46:09;;;;;;;1.85;1.50;;;16.60;70.70;;;;;;5071912;28;20062;-70
2022/10/27 06:48:36;;;;;;;2.25;1.60;;;16.60;70.70;;;;;;5078458;28;20131;-70
2022/10/27 06:51:03;;;;;;;2.00;1.38;;;16.60;70.70;;;;;;5083255;28;20498;-70
2022/10/27 06:53:30;;;;;;;2.13;1.50;;;16.60;70.70;;;;;;5073507;28;20763;-71
2022/10/27 06:55:58;;;;;;;3.63;1.60;;;16.60;70.70;;;;;;5071942;28;20063;-71
2022/10/27 06:58:25;;;;;;;2.38;1.70;;;16.70;70.70;;;;;;5072938;28;20044;-70
2022/10/27 07:00:51;;;;;;;1.85;1.40;;;16.70;70.70;;;;;;5071707;28;20052;-70
2022/10/27 07:03:18;;;;;;;2.70;1.80;;;16.70;70.70;;;;;;5071232;28;20053;-70
2022/10/27 07:05:45;;;;;;;4.80;2.20;;;16.70;70.60;;;;;;5072702;28;20401;-70
2022/10/27 07:08:11;;;;;;;5.38;1.80;;;16.70;70.60;;;;;;5071120;28;20053;-69
2022/10/27 07:10:38;;;;;;;4.68;1.70;;;16.70;70.60;;;;;;5071357;28;20057;-69
2022/10/27 07:13:06;;;;;;;4.75;1.77;;;16.70;70.60;;;;;;5085530;28;20054;-71
2022/10/27 07:15:35;;;;;;;2.90;1.92;;;16.80;70.60;;;;;;5091041;28;20062;-70
2022/10/27 07:18:04;;;;;;;7.85;2.33;;;16.80;70.60;;;;;;5091013;28;20132;-70
2022/10/27 07:20:32;;;;;;;2.30;1.75;;;16.80;70.60;;;;;;5091047;28;20095;-70
2022/10/27 07:22:59;;;;;;;5.90;2.15;;;16.80;70.60;;;;;;5091237;28;20543;-70
2022/10/27 07:25:27;;;;;;;5.47;2.17;;;16.90;70.60;;;;;;5092608;28;20446;-71
2022/10/27 07:27:54;;;;;;;8.35;2.63;;;16.90;70.70;;;;;;5073454;28;20056;-70
2022/10/27 07:30:23;;;;;;;11.32;3.08;;;16.90;70.70;;;;;;5071468;28;20064;-70
2022/10/27 07:32:50;;;;;;;15.60;3.90;;;16.90;70.60;;;;;;5070865;28;20045;-71
2022/10/27 07:35:16;;;;;;;12.00;3.50;;;16.90;70.60;;;;;;5072107;28;20044;-71
2022/10/27 07:37:43;;;;;;;13.60;3.50;;;17.00;70.70;;;;;;5090345;28;20457;-71
2022/10/27 07:40:11;;;;;;;11.38;3.47;;;17.00;70.70;;;;;;5091046;28;20079;-71
2022/10/27 07:42:43;;;;;;;9.85;3.15;;;17.00;70.70;;;;;;5090589;28;20048;-71
2022/10/27 07:45:10;;;;;;;11.30;3.70;;;17.00;70.70;;;;;;5090427;28;20068;-71
2022/10/27 07:47:42;;;;;;;12.70;3.90;;;17.00;70.70;;;;;;5092236;28;20051;-71
2022/10/27 07:50:09;;;;;;;12.85;3.47;;;17.10;70.80;;;;;;5090662;28;20420;-71
2022/10/27 07:52:40;;;;;;;9.95;3.47;;;17.10;70.80;;;;;;5090968;28;20056;-71
2022/10/27 07:55:08;;;;;;;13.55;3.95;;;17.10;70.80;;;;;;5090928;28;20063;-71
2022/10/27 07:57:34;;;;;;;14.63;3.47;;;17.10;70.80;;;;;;5092373;28;20427;-70
2022/10/27 08:00:01;;;;;;;12.73;4.00;;;17.10;70.80;;;;;;5079074;28;20049;-70
2022/10/27 08:02:28;;;;;;;10.15;3.85;;;17.10;70.80;;;;;;5071720;28;20049;-71
2022/10/27 08:04:56;;;;;;;10.65;4.10;;;17.10;70.70;;;;;;5070828;28;20052;-71
2022/10/27 08:07:23;;;;;;;11.00;3.78;;;17.10;70.80;;;;;;5070305;28;20056;-70
2022/10/27 08:09:49;;;;;;;10.52;3.47;;;17.10;70.80;;;;;;5070923;28;20432;-70
2022/10/27 08:12:16;;;;;;;8.45;3.28;;;17.20;70.80;;;;;;5070258;28;20062;-69
2022/10/27 08:14:43;;;;;;;8.05;3.30;;;17.10;70.70;;;;;;5083096;28;20051;-70
2022/10/27 08:17:10;;;;;;;11.60;3.70;;;17.20;70.70;;;;;;5090469;28;20051;-69
2022/10/27 08:19:36;;;;;;;6.95;2.75;;;17.10;70.70;;;;;;5092785;28;20060;-68
2022/10/27 08:22:04;;;;;;;7.13;3.20;;;17.10;70.60;;;;;;5095735;28;20048;-69
2022/10/27 08:24:31;;;;;;;11.15;3.30;;;17.10;70.60;;;;;;5095964;28;20048;-70
2022/10/27 08:26:58;;;;;;;6.93;3.00;;;17.10;70.60;;;;;;5095016;28;20059;-70
2022/10/27 08:29:25;;;;;;;8.07;2.80;;;17.10;70.60;;;;;;5082797;28;20428;-70
2022/10/27 08:31:51;;;;;;;4.30;2.72;;;17.20;70.60;;;;;;5075336;28;20421;-70
2022/10/27 08:34:18;;;;;;;5.75;2.75;;;17.10;70.50;;;;;;5074472;28;20044;-70
2022/10/27 08:36:45;;;;;;;8.20;2.75;;;17.10;70.50;;;;;;5075468;28;20408;-70
2022/10/27 08:39:13;;;;;;;6.90;2.80;;;17.10;70.50;;;;;;5074320;28;20067;-70
2022/10/27 08:41:41;;;;;;;6.93;2.97;;;17.20;70.60;;;;;;5074050;28;20409;-71
2022/10/27 08:44:16;;;;;;;5.97;2.67;;;17.10;70.60;;;;;;5089813;28;20048;-72
2022/10/27 08:46:44;;;;;;;7.45;2.72;;;17.10;70.60;;;;;;5094399;28;20101;-72
2022/10/27 08:49:20;;;;;;;6.43;2.67;;;17.10;70.60;;;;;;5095480;28;20058;-72
2022/10/27 08:51:47;;;;;;;7.20;2.88;;;17.20;70.60;;;;;;5094163;28;20062;-72
2022/10/27 08:54:15;;;;;;;6.72;3.10;;;17.10;70.70;;;;;;5095501;28;20070;-72
2022/10/27 08:56:42;;;;;;;7.15;2.60;;;17.20;70.70;;;;;;5094394;28;20055;-72
2022/10/27 08:59:13;;;;;;;5.53;2.35;;;17.10;70.70;;;;;;5077016;28;20056;-72
2022/10/27 09:01:42;;;;;;;4.80;2.42;;;17.20;70.70;;;;;;5076242;28;20047;-72
2022/10/27 09:04:30;;;;;;;4.90;2.70;;;17.20;70.70;;;;;;5084115;28;20390;-72
2022/10/27 09:07:04;;;;;;;4.50;2.58;;;17.10;70.60;;;;;;5074607;28;20048;-72
2022/10/27 09:09:43;;;;;;;6.95;2.70;;;17.20;70.70;;;;;;5081387;28;20527;-72
2022/10/27 09:12:15;;;;;;;5.82;2.40;;;17.10;70.60;;;;;;5080419;28;20060;-72
2022/10/27 09:15:09;;;;;;;5.47;2.38;;;17.20;70.70;;;;;;5083228;28;20052;-72
2022/10/27 09:17:38;;;;;;;5.97;2.45;;;17.10;70.50;;;;;;5083496;28;20489;-72
2022/10/27 09:20:05;;;;;;;8.30;2.63;;;17.20;70.60;;;;;;5093597;28;20055;-72
2022/10/27 09:22:33;;;;;;;7.18;2.67;;;17.20;70.60;;;;;;5093229;28;20052;-72
2022/10/27 09:25:03;;;;;;;5.90;2.50;;;17.20;70.60;;;;;;5093726;28;20060;-72
2022/10/27 09:27:30;;;;;;;6.03;2.33;;;17.20;70.60;;;;;;5093258;28;20507;-72
2022/10/27 09:30:00;;;;;;;6.40;2.10;;;17.20;70.60;;;;;;5092924;28;20519;-72
2022/10/27 09:32:27;;;;;;;5.85;2.42;;;17.20;70.70;;;;;;5093596;28;20055;-73
2022/10/27 09:34:55;;;;;;;4.53;2.42;;;17.20;70.70;;;;;;5093630;28;20412;-73
2022/10/27 09:37:22;;;;;;;5.22;2.03;;;17.20;70.70;;;;;;5093331;28;20066;-73
2022/10/27 09:39:50;;;;;;;4.47;2.33;;;17.20;70.70;;;;;;5094625;28;20048;-72
2022/10/27 09:42:18;;;;;;;7.82;2.10;;;17.20;70.70;;;;;;5081038;28;20055;-72
2022/10/27 09:44:45;;;;;;;8.25;2.80;;;17.30;70.70;;;;;;5073792;28;20048;-71
2022/10/27 09:47:12;;;;;;;4.05;1.90;;;17.30;70.70;;;;;;5073277;28;20062;-72
2022/10/27 09:49:39;;;;;;;6.70;2.38;;;17.30;70.70;;;;;;5072968;28;20059;-72
2022/10/27 09:52:10;;;;;;;5.25;2.13;;;17.30;70.60;;;;;;5072954;28;20056;-72
2022/10/27 09:54:38;;;;;;;9.20;2.47;;;17.30;70.70;;;;;;5078614;28;20109;-73
2022/10/27 09:57:06;;;;;;;7.88;2.20;;;17.30;70.60;;;;;;5083040;28;20060;-72
2022/10/27 09:59:35;;;;;;;7.80;2.13;;;17.30;70.70;;;;;;5080871;28;20051;-72
2022/10/27 10:02:04;;;;;;;5.30;2.17;;;17.70;70.90;;;;;;5072171;28;20063;-73
2022/10/27 10:04:31;;;;;;;4.80;2.28;;;17.30;70.70;;;;;;5084600;28;20454;-73
2022/10/27 10:06:59;;;;;;;4.63;2.15;;;17.30;70.60;;;;;;5081879;28;20056;-73
2022/10/27 10:09:29;;;;;;;5.38;2.03;;;17.30;70.60;;;;;;5081417;28;20048;-72
2022/10/27 10:12:17;;;;;;;4.78;1.85;;;17.30;70.50;;;;;;5081278;28;20050;-73
2022/10/27 10:14:45;;;;;;;8.15;2.25;;;17.40;70.50;;;;;;5082066;28;20573;-72
2022/10/27 10:17:23;;;;;;;5.75;2.03;;;17.30;70.60;;;;;;5080483;28;20063;-72
2022/10/27 10:19:50;;;;;;;6.75;2.30;;;17.30;70.50;;;;;;5080950;28;20048;-72
2022/10/27 10:22:21;;;;;;;6.47;2.10;;;17.30;70.60;;;;;;5074832;28;20060;-72
2022/10/27 10:24:48;;;;;;;7.75;2.30;;;17.30;70.50;;;;;;5072128;28;20045;-72
2022/10/27 10:27:24;;;;;;;4.65;1.98;;;17.40;70.60;;;;;;5072755;28;20052;-72
2022/10/27 10:29:52;;;;;;;8.00;2.08;;;17.40;70.60;;;;;;5074983;28;20539;-71
2022/10/27 10:32:19;;;;;;;9.35;2.20;;;17.30;70.60;;;;;;5078998;28;20139;-72
2022/10/27 10:34:47;;;;;;;4.35;1.80;;;17.30;70.50;;;;;;5090076;28;20052;-72
2022/10/27 10:37:29;;;;;;;3.58;2.00;;;17.30;70.50;;;;;;5092355;28;20520;-73
2022/10/27 10:39:56;;;;;;;4.15;1.88;;;17.40;70.50;;;;;;5074344;28;20058;-72
2022/10/27 10:42:22;;;;;;;4.40;2.05;;;17.40;70.50;;;;;;5091992;28;20489;-72
2022/10/27 10:44:49;;;;;;;3.13;1.70;;;17.40;70.50;;;;;;5090877;28;20054;-73
2022/10/27 10:47:23;;;;;;;3.78;1.95;;;17.40;70.60;;;;;;5091849;28;20058;-72
2022/10/27 10:49:51;;;;;;;4.37;1.83;;;17.40;70.60;;;;;;5092144;28;20052;-72
2022/10/27 10:52:19;;;;;;;4.32;1.63;;;17.40;70.60;;;;;;5091990;28;20052;-72
2022/10/27 10:54:45;;;;;;;3.08;1.70;;;17.40;70.60;;;;;;5092274;28;20060;-72
2022/10/27 10:57:23;;;;;;;3.70;2.10;;;17.40;70.50;;;;;;5083616;28;20066;-72
2022/10/27 10:59:49;;;;;;;2.33;1.52;;;17.40;70.50;;;;;;5073081;28;20055;-72
2022/10/27 11:02:29;;;;;;;3.33;1.60;;;17.40;70.50;;;;;;5071659;28;20056;-72
2022/10/27 11:04:57;;;;;;;2.47;1.50;;;17.40;70.50;;;;;;5072885;28;20858;-73
2022/10/27 11:07:25;;;;;;;4.00;1.70;;;17.40;70.50;;;;;;5072977;28;20102;-73
2022/10/27 11:09:55;;;;;;;2.45;1.60;;;17.40;70.50;;;;;;5072985;28;20048;-73
2022/10/27 11:12:26;;;;;;;2.60;1.50;;;17.40;70.50;;;;;;5085229;28;20052;-72
2022/10/27 11:14:53;;;;;;;4.20;1.80;;;17.40;70.40;;;;;;5092971;28;20062;-71
2022/10/27 11:17:20;;;;;;;2.88;1.85;;;17.40;70.50;;;;;;5092870;28;20058;-72
2022/10/27 11:19:46;;;;;;;3.10;1.75;;;17.40;70.50;;;;;;5091752;28;20052;-72
2022/10/27 11:22:15;;;;;;;3.72;1.40;;;17.50;70.60;;;;;;5092709;28;20043;-72
2022/10/27 11:24:44;;;;;;;3.65;1.63;;;17.40;70.50;;;;;;5091305;28;20436;-72
2022/10/27 11:27:13;;;;;;;2.92;1.50;;;17.40;70.50;;;;;;5075765;28;20056;-72
2022/10/27 11:29:44;;;;;;;4.72;1.60;;;17.50;70.50;;;;;;5075901;28;20067;-72
2022/10/27 11:32:14;;;;;;;4.32;1.65;;;17.50;70.50;;;;;;5072521;28;20048;-71
2022/10/27 11:34:43;;;;;;;3.13;1.48;;;17.50;70.40;;;;;;5071094;28;20048;-71
2022/10/27 11:37:13;;;;;;;3.13;1.35;;;17.50;70.30;;;;;;5072341;28;20078;-71
2022/10/27 11:39:44;;;;;;;2.33;1.35;;;17.60;70.20;;;;;;5072130;28;20053;-71
2022/10/27 11:42:17;;;;;;;2.45;1.60;;;17.60;70.10;;;;;;5071964;28;20048;-71
2022/10/27 11:44:46;;;;;;;2.13;1.45;;;17.60;70.00;;;;;;5073307;28;20430;-71
2022/10/27 11:47:14;;;;;;;4.03;1.70;;;17.60;70.00;;;;;;5094137;28;20047;-71
2022/10/27 11:49:45;;;;;;;3.22;1.67;;;17.60;69.80;;;;;;5112667;27;20050;-72
2022/10/27 11:52:14;;;;;;;4.30;1.60;;;17.70;69.80;;;;;;5097784;28;20056;-71
2022/10/27 11:54:42;;;;;;;3.72;1.45;;;17.70;69.80;;;;;;5091010;28;20058;-72
2022/10/27 11:57:15;;;;;;;1.92;1.30;;;17.70;69.70;;;;;;5092177;28;20505;-72
2022/10/27 11:59:49;;;;;;;2.40;1.58;;;17.70;69.60;;;;;;5091193;28;20059;-73
2022/10/27 12:02:25;;;;;;;2.75;1.30;;;17.80;69.60;;;;;;5092104;28;20419;-73
2022/10/27 12:04:54;;;;;;;3.50;1.60;;;17.80;69.70;;;;;;5090824;28;20052;-73
2022/10/27 12:07:28;;;;;;;5.78;1.60;;;17.80;69.60;;;;;;5071898;28;20052;-73
2022/10/27 12:10:04;;;;;;;9.80;2.28;;;17.80;69.50;;;;;;5070819;28;20135;-73
2022/10/27 12:12:33;;;;;;;6.40;1.77;;;17.80;69.50;;;;;;5070946;28;20076;-74
2022/10/27 12:15:01;;;;;;;5.97;1.80;;;17.80;69.50;;;;;;5080138;28;20048;-73
2022/10/27 12:17:30;;;;;;;6.85;1.90;;;17.80;69.50;;;;;;5092450;28;20047;-73
2022/10/27 12:19:57;;;;;;;4.40;1.80;;;17.80;69.50;;;;;;5090525;28;20048;-72
2022/10/27 12:22:26;;;;;;;8.05;2.05;;;17.90;69.50;;;;;;5091341;28;20606;-72
2022/10/27 12:24:55;;;;;;;3.92;1.52;;;17.90;69.40;;;;;;5090534;28;20527;-72
2022/10/27 12:27:25;;;;;;;4.80;1.58;;;17.90;69.40;;;;;;5090642;28;20052;-73
2022/10/27 12:29:54;;;;;;;6.55;1.88;;;17.90;69.30;;;;;;5078979;28;20060;-72
2022/10/27 12:32:22;;;;;;;4.03;1.65;;;17.90;69.30;;;;;;5071484;28;20053;-72
2022/10/27 12:34:50;;;;;;;4.38;1.70;;;17.90;69.30;;;;;;5070697;28;20378;-73
2022/10/27 12:37:20;;;;;;;4.15;1.50;;;17.90;69.30;;;;;;5070446;28;20057;-72
2022/10/27 12:39:48;;;;;;;5.90;1.70;;;17.90;69.30;;;;;;5077919;28;20048;-73
2022/10/27 12:42:17;;;;;;;8.18;2.13;;;17.90;69.40;;;;;;5080642;28;20058;-73
2022/10/27 12:44:52;;;;;;;5.93;1.65;;;17.90;70.00;;;;;;5079616;28;20047;-73
2022/10/27 12:47:37;;;;;;;6.20;1.85;;;17.90;69.50;;;;;;5079601;28;20056;-72
2022/10/27 12:50:12;;;;;;;5.68;1.67;;;17.90;69.60;;;;;;5090327;28;20064;-73
2022/10/27 12:52:41;;;;;;;2.95;1.50;;;17.90;70.20;;;;;;5092962;28;20048;-73